createdAt,value
2019-02-25T00:01:27.661Z,29.23
2019-02-25T00:03:58.240Z,28.73
2019-02-25T00:06:29.269Z,26.90
2019-02-25T00:09:02.025Z,28.70
2019-02-25T00:11:33.541Z,27.47
2019-02-25T00:14:03.633Z,28.23
2019-02-25T00:16:33.498Z,28.40
2019-02-25T00:19:04.959Z,28.23
2019-02-25T00:21:35.085Z,28.27
2019-02-25T00:24:05.785Z,27.63
2019-02-25T00:26:36.080Z,28.13
2019-02-25T00:29:06.680Z,28.03
2019-02-25T00:31:36.947Z,26.77
2019-02-25T00:34:07.332Z,24.93
2019-02-25T00:36:37.519Z,26.00
2019-02-25T00:39:08.909Z,25.50
2019-02-25T00:41:38.835Z,25.37
2019-02-25T00:44:09.092Z,25.83
2019-02-25T00:46:39.104Z,24.97
2019-02-25T00:49:10.619Z,23.77
2019-02-25T00:51:40.723Z,24.70
2019-02-25T00:54:11.010Z,25.33
2019-02-25T00:56:41.139Z,23.83
2019-02-25T00:59:11.255Z,25.63
2019-02-25T01:01:41.567Z,23.03
2019-02-25T01:04:11.918Z,22.53
2019-02-25T01:06:43.059Z,23.13
2019-02-25T01:09:13.179Z,21.73
2019-02-25T01:11:43.273Z,24.40
2019-02-25T01:14:13.453Z,21.73
2019-02-25T01:16:43.557Z,21.93
2019-02-25T01:19:13.342Z,24.23
2019-02-25T01:21:43.300Z,23.43
2019-02-25T01:24:13.349Z,22.23
2019-02-25T01:26:43.470Z,21.63
2019-02-25T01:29:13.609Z,22.10
2019-02-25T01:31:43.805Z,22.47
2019-02-25T01:34:14.366Z,21.10
2019-02-25T01:36:44.531Z,21.80
2019-02-25T01:39:14.703Z,21.03
2019-02-25T01:41:44.917Z,22.83
2019-02-25T01:44:15.012Z,23.00
2019-02-25T01:46:45.119Z,22.23
2019-02-25T01:49:15.354Z,21.20
2019-02-25T01:51:45.258Z,21.93
2019-02-25T01:54:15.863Z,20.30
2019-02-25T01:56:45.516Z,21.40
2019-02-25T01:59:15.681Z,21.27
2019-02-25T02:01:45.849Z,20.57
2019-02-25T02:04:15.961Z,20.27
2019-02-25T02:06:46.002Z,19.67
2019-02-25T02:09:16.293Z,21.33
2019-02-25T02:11:46.394Z,20.73
2019-02-25T02:14:16.549Z,20.90
2019-02-25T02:16:46.510Z,21.37
2019-02-25T02:19:16.749Z,21.40
2019-02-25T02:21:47.012Z,20.33
2019-02-25T02:24:16.987Z,21.30
2019-02-25T02:26:46.989Z,20.63
2019-02-25T02:29:17.367Z,20.77
2019-02-25T02:31:47.419Z,21.17
2019-02-25T02:34:17.526Z,20.30
2019-02-25T02:36:47.605Z,20.83
2019-02-25T02:39:17.570Z,19.73
2019-02-25T02:42:13.131Z,20.03
2019-02-25T02:44:45.163Z,20.83
2019-02-25T02:47:24.389Z,19.77
2019-02-25T02:49:54.494Z,20.43
2019-02-25T02:52:24.624Z,19.90
2019-02-25T02:54:54.769Z,20.70
2019-02-25T02:57:25.792Z,21.20
2019-02-25T02:59:55.932Z,20.13
2019-02-25T03:02:25.585Z,20.97
2019-02-25T03:04:57.466Z,20.47
2019-02-25T03:07:27.702Z,20.47
2019-02-25T03:09:58.883Z,19.07
2019-02-25T03:12:29.294Z,18.47
2019-02-25T03:15:00.412Z,19.53
2019-02-25T03:17:30.266Z,19.40
2019-02-25T03:20:00.450Z,19.03
2019-02-25T03:22:30.590Z,19.23
2019-02-25T03:25:00.794Z,19.27
2019-02-25T03:27:30.990Z,18.00
2019-02-25T03:30:00.960Z,18.00
2019-02-25T03:32:31.364Z,18.27
2019-02-25T03:35:01.441Z,19.33
2019-02-25T03:37:31.424Z,18.10
2019-02-25T03:40:01.685Z,19.33
2019-02-25T03:42:31.632Z,17.27
2019-02-25T03:45:01.634Z,18.47
2019-02-25T03:47:33.094Z,19.73
2019-02-25T03:50:03.151Z,18.23
2019-02-25T03:52:33.330Z,18.80
2019-02-25T03:55:03.801Z,19.50
2019-02-25T03:57:36.093Z,17.90
2019-02-25T04:00:14.334Z,19.10
2019-02-25T04:02:44.542Z,18.17
2019-02-25T04:05:15.723Z,19.60
2019-02-25T04:07:47.282Z,19.03
2019-02-25T04:10:18.931Z,19.30
2019-02-25T04:12:49.204Z,18.60
2019-02-25T04:15:21.887Z,19.10
2019-02-25T04:17:52.069Z,18.03
2019-02-25T04:20:22.438Z,19.70
2019-02-25T04:22:53.621Z,18.23
2019-02-25T04:25:23.665Z,17.87
2019-02-25T04:27:53.971Z,17.70
2019-02-25T04:30:24.229Z,16.83
2019-02-25T04:32:55.684Z,18.63
2019-02-25T04:35:25.798Z,17.30
2019-02-25T04:37:55.945Z,18.27
2019-02-25T04:40:25.904Z,17.47
2019-02-25T04:42:57.116Z,18.03
2019-02-25T04:45:27.181Z,18.20
2019-02-25T04:47:57.181Z,18.90
2019-02-25T04:50:27.248Z,16.87
2019-02-25T04:52:57.459Z,17.83
2019-02-25T04:55:27.674Z,18.73
2019-02-25T04:57:58.740Z,19.63
2019-02-25T05:00:28.850Z,18.00
2019-02-25T05:02:59.162Z,18.37
2019-02-25T05:05:29.287Z,17.57
2019-02-25T05:07:59.308Z,18.97
2019-02-25T05:10:29.421Z,19.23
2019-02-25T05:13:01.077Z,18.40
2019-02-25T05:15:32.432Z,18.73
2019-02-25T05:18:03.300Z,18.27
2019-02-25T05:20:33.381Z,19.63
2019-02-25T05:23:03.626Z,18.20
2019-02-25T05:25:33.948Z,18.27
2019-02-25T05:28:04.319Z,18.60
2019-02-25T05:30:34.478Z,18.20
2019-02-25T05:33:04.671Z,19.00
2019-02-25T05:35:34.860Z,18.77
2019-02-25T05:38:06.114Z,19.50
2019-02-25T05:40:36.099Z,19.57
2019-02-25T05:43:06.240Z,20.00
2019-02-25T05:45:36.316Z,20.60
2019-02-25T05:48:06.574Z,20.27
2019-02-25T05:50:36.687Z,20.93
2019-02-25T05:53:06.809Z,21.33
2019-02-25T05:55:37.129Z,21.40
2019-02-25T05:58:07.362Z,27.70
2019-02-25T06:00:37.494Z,23.37
2019-02-25T06:03:07.288Z,24.33
2019-02-25T06:05:37.221Z,24.37
2019-02-25T06:08:07.420Z,23.67
2019-02-25T06:10:37.503Z,23.43
2019-02-25T06:13:07.755Z,26.00
2019-02-25T06:15:37.993Z,28.47
2019-02-25T06:18:08.112Z,27.67
2019-02-25T06:20:38.232Z,23.03
2019-02-25T06:23:08.434Z,21.37
2019-02-25T06:25:38.456Z,22.47
2019-02-25T06:28:08.679Z,22.63
2019-02-25T06:30:38.784Z,25.53
2019-02-25T06:33:08.973Z,22.30
2019-02-25T06:35:39.223Z,21.70
2019-02-25T06:38:09.404Z,22.93
2019-02-25T06:40:39.403Z,24.23
2019-02-25T06:43:09.694Z,24.70
2019-02-25T06:45:39.700Z,23.53
2019-02-25T06:48:09.817Z,23.47
2019-02-25T06:50:39.798Z,26.87
2019-02-25T06:53:11.087Z,26.53
2019-02-25T06:55:41.315Z,21.47
2019-02-25T06:58:11.632Z,19.17
2019-02-25T07:00:42.660Z,19.97
2019-02-25T07:03:14.111Z,19.53
2019-02-25T07:05:46.499Z,19.33
2019-02-25T07:08:24.638Z,20.13
2019-02-25T07:10:57.577Z,19.60
2019-02-25T07:13:31.487Z,19.00
2019-02-25T07:16:06.037Z,20.87
2019-02-25T07:18:40.539Z,19.70
2019-02-25T07:21:18.323Z,20.50
2019-02-25T07:24:07.942Z,21.97
2019-02-25T07:26:39.509Z,21.30
2019-02-25T07:29:17.244Z,19.10
2019-02-25T07:32:07.136Z,22.77
2019-02-25T07:34:38.886Z,21.17
2019-02-25T07:37:16.096Z,21.03
2019-02-25T07:40:03.009Z,22.10
2019-02-25T07:42:37.615Z,25.33
2019-02-25T07:45:13.083Z,30.70
2019-02-25T07:47:45.127Z,37.63
2019-02-25T07:50:19.845Z,34.27
2019-02-25T07:53:08.891Z,31.17
2019-02-25T07:55:40.267Z,25.67
2019-02-25T07:58:12.102Z,22.57
2019-02-25T08:00:43.849Z,23.40
2019-02-25T08:03:27.589Z,23.93
2019-02-25T08:05:59.346Z,23.10
2019-02-25T08:08:31.110Z,22.17
2019-02-25T08:11:05.723Z,23.33
2019-02-25T08:13:46.820Z,23.27
2019-02-25T08:16:21.538Z,27.50
2019-02-25T08:18:54.195Z,23.40
2019-02-25T08:21:31.950Z,23.57
2019-02-25T08:24:09.902Z,24.17
2019-02-25T08:26:58.148Z,22.87
2019-02-25T08:29:33.901Z,22.93
2019-02-25T08:32:05.758Z,22.40
2019-02-25T08:34:40.176Z,23.63
2019-02-25T08:37:26.477Z,23.33
2019-02-25T08:40:13.395Z,20.40
2019-02-25T08:42:43.931Z,25.07
2019-02-25T08:45:27.496Z,22.50
2019-02-25T08:48:02.796Z,22.90
2019-02-25T08:50:32.656Z,23.03
2019-02-25T08:53:02.771Z,24.70
2019-02-25T08:55:33.062Z,22.93
2019-02-25T08:58:03.550Z,25.70
2019-02-25T09:00:33.884Z,24.40
2019-02-25T09:03:04.106Z,26.50
2019-02-25T09:05:35.573Z,25.33
2019-02-25T09:08:05.691Z,26.03
2019-02-25T09:10:35.799Z,23.87
2019-02-25T09:13:06.242Z,22.57
2019-02-25T09:15:36.575Z,23.77
2019-02-25T09:18:05.307Z,25.97
2019-02-25T09:20:35.476Z,25.40
2019-02-25T09:23:05.495Z,23.63
2019-02-25T09:25:37.116Z,24.07
2019-02-25T09:28:07.105Z,24.07
2019-02-25T09:30:37.391Z,24.37
2019-02-25T09:33:07.381Z,24.80
2019-02-25T09:35:37.723Z,23.93
2019-02-25T09:38:08.005Z,24.63
2019-02-25T09:40:38.416Z,23.67
2019-02-25T09:43:08.239Z,23.60
2019-02-25T09:45:39.417Z,23.40
2019-02-25T09:48:09.615Z,23.57
2019-02-25T09:50:39.602Z,23.33
2019-02-25T09:53:09.659Z,22.93
2019-02-25T09:55:39.705Z,23.70
2019-02-25T09:58:09.777Z,23.50
2019-02-25T10:00:40.346Z,23.13
2019-02-25T10:03:10.968Z,23.13
2019-02-25T10:05:41.685Z,23.07
2019-02-25T10:08:12.001Z,23.97
2019-02-25T10:10:42.102Z,22.93
2019-02-25T10:13:12.240Z,21.30
2019-02-25T10:15:42.323Z,20.90
2019-02-25T10:18:12.452Z,21.87
2019-02-25T10:20:42.789Z,20.90
2019-02-25T10:23:13.131Z,20.53
2019-02-25T10:25:43.349Z,22.93
2019-02-25T10:28:13.265Z,20.10
2019-02-25T10:30:52.404Z,22.13
2019-02-25T10:33:15.365Z,22.70
2019-02-25T10:35:45.502Z,23.07
2019-02-25T10:38:16.475Z,21.27
2019-02-25T10:40:47.513Z,23.33
2019-02-25T10:43:18.562Z,21.20
2019-02-25T10:45:48.679Z,21.07
2019-02-25T10:48:19.828Z,21.10
2019-02-25T10:50:55.945Z,20.73
2019-02-25T10:53:22.196Z,21.00
2019-02-25T10:56:01.434Z,20.10
2019-02-25T10:58:33.519Z,21.77
2019-02-25T11:01:03.714Z,21.80
2019-02-25T11:03:33.767Z,21.37
2019-02-25T11:06:03.925Z,20.73
2019-02-25T11:08:35.267Z,20.90
2019-02-25T11:11:07.237Z,19.00
2019-02-25T11:13:38.290Z,24.40
2019-02-25T11:16:09.858Z,18.27
2019-02-25T11:18:40.709Z,20.07
2019-02-25T11:21:10.896Z,19.07
2019-02-25T11:23:42.897Z,19.33
2019-02-25T11:26:12.942Z,20.87
2019-02-25T11:28:43.780Z,20.57
2019-02-25T11:31:15.472Z,20.73
2019-02-25T11:33:45.883Z,20.23
2019-02-25T11:36:17.250Z,18.43
2019-02-25T11:38:47.345Z,18.10
2019-02-25T11:41:17.485Z,19.50
2019-02-25T11:43:48.685Z,17.87
2019-02-25T11:46:19.550Z,20.53
2019-02-25T11:48:50.651Z,19.20
2019-02-25T11:51:21.115Z,19.23
2019-02-25T11:53:51.281Z,18.73
2019-02-25T11:56:21.420Z,21.20
2019-02-25T11:58:51.568Z,19.83
2019-02-25T12:01:21.707Z,18.20
2019-02-25T12:03:53.462Z,17.83
2019-02-25T12:06:23.619Z,18.30
2019-02-25T12:08:53.623Z,17.90
2019-02-25T12:11:23.839Z,18.90
2019-02-25T12:13:53.936Z,19.40
2019-02-25T12:16:24.461Z,17.53
2019-02-25T12:18:54.649Z,18.50
2019-02-25T12:21:25.021Z,19.67
2019-02-25T12:23:55.116Z,17.37
2019-02-25T12:26:25.297Z,18.07
2019-02-25T12:28:55.555Z,18.77
2019-02-25T12:31:25.791Z,20.13
2019-02-25T12:33:56.950Z,19.37
2019-02-25T12:36:27.158Z,20.23
2019-02-25T12:38:57.259Z,20.53
2019-02-25T12:41:27.894Z,19.03
2019-02-25T12:43:58.319Z,20.37
2019-02-25T12:46:28.381Z,21.87
2019-02-25T12:48:58.636Z,21.87
2019-02-25T12:51:28.751Z,23.37
2019-02-25T12:53:58.696Z,22.37
2019-02-25T12:56:28.799Z,24.00
2019-02-25T12:58:58.922Z,22.63
2019-02-25T13:01:29.134Z,24.23
2019-02-25T13:03:59.143Z,26.83
2019-02-25T13:06:29.391Z,26.20
2019-02-25T13:09:00.414Z,27.20
2019-02-25T13:11:32.087Z,27.37
2019-02-25T13:14:02.118Z,28.13
2019-02-25T13:16:33.762Z,30.33
2019-02-25T13:19:03.911Z,31.13
2019-02-25T13:21:33.977Z,31.67
2019-02-25T13:24:04.609Z,32.50
2019-02-25T13:26:36.589Z,34.20
2019-02-25T13:29:07.277Z,34.03
2019-02-25T13:31:37.387Z,35.27
2019-02-25T13:34:07.647Z,36.60
2019-02-25T13:36:38.503Z,34.83
2019-02-25T13:39:08.873Z,36.90
2019-02-25T13:41:40.053Z,38.97
2019-02-25T13:44:10.687Z,38.10
2019-02-25T13:46:41.241Z,36.23
2019-02-25T13:49:11.405Z,38.67
2019-02-25T13:51:41.634Z,39.70
2019-02-25T13:54:11.762Z,42.17
2019-02-25T13:56:41.991Z,39.97
2019-02-25T13:59:12.581Z,42.17
2019-02-25T14:01:42.652Z,42.83
2019-02-25T14:04:12.850Z,40.50
2019-02-25T14:06:43.629Z,40.13
2019-02-25T14:09:14.227Z,38.50
2019-02-25T14:11:45.961Z,37.37
2019-02-25T14:14:16.227Z,35.97
2019-02-25T14:16:46.375Z,35.83
2019-02-25T14:19:16.738Z,36.33
2019-02-25T14:21:47.046Z,39.13
2019-02-25T14:24:18.417Z,39.43
2019-02-25T14:26:49.084Z,40.10
2019-02-25T14:29:19.360Z,38.80
2019-02-25T14:31:51.059Z,40.37
2019-02-25T14:34:21.425Z,43.27
2019-02-25T14:36:52.471Z,42.60
2019-02-25T14:39:27.779Z,43.80
2019-02-25T14:41:59.151Z,42.00
2019-02-25T14:44:32.302Z,39.97
2019-02-25T14:47:01.119Z,41.93
2019-02-25T14:49:32.660Z,38.23
2019-02-25T14:52:03.827Z,38.37
2019-02-25T14:54:35.254Z,37.00
2019-02-25T14:57:08.243Z,36.77
2019-02-25T14:59:38.473Z,40.03
2019-02-25T15:02:09.295Z,42.03
2019-02-25T15:04:41.798Z,43.10
2019-02-25T15:07:13.512Z,37.27
2019-02-25T15:09:45.588Z,37.73
2019-02-25T15:12:15.881Z,40.13
2019-02-25T15:14:46.125Z,37.33
2019-02-25T15:17:16.282Z,35.80
2019-02-25T15:19:46.687Z,37.03
2019-02-25T15:22:18.091Z,33.77
2019-02-25T15:24:50.245Z,35.27
2019-02-25T15:27:20.348Z,34.20
2019-02-25T15:29:50.732Z,36.37
2019-02-25T15:32:21.225Z,36.20
2019-02-25T15:34:52.793Z,35.40
2019-02-25T15:37:23.469Z,31.77
2019-02-25T15:39:55.918Z,33.27
2019-02-25T15:42:26.061Z,31.43
2019-02-25T15:44:57.578Z,31.33
2019-02-25T15:47:27.924Z,31.17
2019-02-25T15:50:01.694Z,33.20
2019-02-25T15:52:30.852Z,30.83
2019-02-25T15:55:01.925Z,30.87
2019-02-25T15:57:35.384Z,30.77
2019-02-25T16:00:12.837Z,34.80
2019-02-25T16:02:42.943Z,33.63
2019-02-25T16:05:13.396Z,34.83
2019-02-25T16:07:43.881Z,41.27
2019-02-25T16:10:16.265Z,42.73
2019-02-25T16:12:48.712Z,43.97
2019-02-25T16:15:20.999Z,43.97
2019-02-25T16:17:51.797Z,47.43
2019-02-25T16:20:23.109Z,47.93
2019-02-25T16:22:56.308Z,48.87
2019-02-25T16:25:27.574Z,48.50
2019-02-25T16:27:59.142Z,48.83
2019-02-25T16:30:30.760Z,46.93
2019-02-25T16:33:04.338Z,47.03
2019-02-25T16:35:34.338Z,45.43
2019-02-25T16:38:05.699Z,43.87
2019-02-25T16:40:38.349Z,45.13
2019-02-25T16:43:12.111Z,43.77
2019-02-25T16:45:43.943Z,41.60
2019-02-25T16:48:12.690Z,44.87
2019-02-25T16:50:44.589Z,45.33
2019-02-25T16:53:15.474Z,44.37
2019-02-25T16:55:47.384Z,48.53
2019-02-25T16:58:19.872Z,47.03
2019-02-25T17:00:50.386Z,48.00
2019-02-25T17:03:21.304Z,47.87
2019-02-25T17:05:52.015Z,41.40
2019-02-25T17:08:23.993Z,43.23
2019-02-25T17:10:56.062Z,44.30
2019-02-25T17:13:26.382Z,41.43
2019-02-25T17:15:56.503Z,37.43
2019-02-25T17:18:26.571Z,38.97
2019-02-25T17:20:56.466Z,38.57
2019-02-25T17:23:27.646Z,37.87
2019-02-25T17:25:58.755Z,38.33
2019-02-25T17:28:29.185Z,34.23
2019-02-25T17:30:59.334Z,34.53
2019-02-25T17:33:32.194Z,36.77
2019-02-25T17:36:02.222Z,36.40
2019-02-25T17:38:32.612Z,34.53
2019-02-25T17:41:04.636Z,32.27
2019-02-25T17:43:36.460Z,35.43
2019-02-25T17:46:07.438Z,34.37
2019-02-25T17:48:38.810Z,35.03
2019-02-25T17:51:09.230Z,33.80
2019-02-25T17:53:39.177Z,33.13
2019-02-25T17:56:10.425Z,33.77
2019-02-25T17:58:42.387Z,29.80
2019-02-25T18:01:12.654Z,31.43
2019-02-25T18:03:43.925Z,29.83
2019-02-25T18:06:14.494Z,32.10
2019-02-25T18:08:44.580Z,32.80
2019-02-25T18:11:17.942Z,34.37
2019-02-25T18:13:48.927Z,32.67
2019-02-25T18:16:19.802Z,32.53
2019-02-25T18:18:51.981Z,34.03
2019-02-25T18:21:21.917Z,35.00
2019-02-25T18:23:52.506Z,36.97
2019-02-25T18:26:22.945Z,32.67
2019-02-25T18:28:53.378Z,33.07
2019-02-25T18:31:23.843Z,34.03
2019-02-25T18:33:53.878Z,34.87
2019-02-25T18:36:25.959Z,35.40
2019-02-25T18:38:55.633Z,35.73
2019-02-25T18:41:27.418Z,35.07
2019-02-25T18:43:57.374Z,37.27
2019-02-25T18:46:28.183Z,35.00
2019-02-25T18:49:00.833Z,35.73
2019-02-25T18:51:32.844Z,37.13
2019-02-25T18:54:03.724Z,37.93
2019-02-25T18:56:35.470Z,53.48
2019-02-25T18:59:10.904Z,42.43
2019-02-25T19:01:37.235Z,38.53
2019-02-25T19:04:07.499Z,37.33
2019-02-25T19:06:39.291Z,38.60
2019-02-25T19:09:14.231Z,38.10
2019-02-25T19:11:45.039Z,40.13
2019-02-25T19:14:17.837Z,39.33
2019-02-25T19:16:47.227Z,38.20
2019-02-25T19:19:19.228Z,42.60
2019-02-25T19:21:50.031Z,43.57
2019-02-25T19:24:21.427Z,42.07
2019-02-25T19:26:51.656Z,48.37
2019-02-25T19:29:23.805Z,60.73
2019-02-25T19:31:53.887Z,67.73
2019-02-25T19:34:24.276Z,55.67
2019-02-25T19:36:57.984Z,47.27
2019-02-25T19:39:26.584Z,50.27
2019-02-25T19:41:58.352Z,53.13
2019-02-25T19:44:29.818Z,52.90
2019-02-25T19:47:00.821Z,55.73
2019-02-25T19:49:31.090Z,54.67
2019-02-25T19:52:00.996Z,48.10
2019-02-25T19:54:34.167Z,46.33
2019-02-25T19:57:04.234Z,52.37
2019-02-25T19:59:34.239Z,64.07
2019-02-25T20:02:04.351Z,51.17
2019-02-25T20:04:35.915Z,60.97
2019-02-25T20:07:06.587Z,52.60
2019-02-25T20:09:40.326Z,47.93
2019-02-25T20:12:08.620Z,44.00
2019-02-25T20:14:38.706Z,44.77
2019-02-25T20:17:08.639Z,47.63
2019-02-25T20:19:39.206Z,46.50
2019-02-25T20:22:12.099Z,51.03
2019-02-25T20:24:45.851Z,52.67
2019-02-25T20:27:14.121Z,47.50
2019-02-25T20:29:44.605Z,50.00
2019-02-25T20:32:16.514Z,48.03
2019-02-25T20:34:49.912Z,48.57
2019-02-25T20:37:22.752Z,50.43
2019-02-25T20:39:51.036Z,48.37
2019-02-25T20:42:22.282Z,47.43
2019-02-25T20:44:55.094Z,47.47
2019-02-25T20:47:24.748Z,44.90
2019-02-25T20:49:56.065Z,47.27
2019-02-25T20:52:27.072Z,48.07
2019-02-25T20:54:57.557Z,49.53
2019-02-25T20:57:29.515Z,50.77
2019-02-25T20:59:59.572Z,47.63
2019-02-25T21:02:33.844Z,46.10
2019-02-25T21:05:07.759Z,49.10
2019-02-25T21:07:39.231Z,49.00
2019-02-25T21:10:22.801Z,47.50
2019-02-25T21:12:54.826Z,47.60
2019-02-25T21:15:25.867Z,51.53
2019-02-25T21:17:58.958Z,49.60
2019-02-25T21:20:28.857Z,48.10
2019-02-25T21:23:05.005Z,48.67
2019-02-25T21:25:34.295Z,49.40
2019-02-25T21:28:08.829Z,48.83
2019-02-25T21:30:41.802Z,46.80
2019-02-25T21:33:15.313Z,48.83
2019-02-25T21:35:46.174Z,49.23
2019-02-25T21:38:19.538Z,48.13
2019-02-25T21:40:50.595Z,47.97
2019-02-25T21:43:25.716Z,45.73
2019-02-25T21:45:56.460Z,45.07
2019-02-25T21:48:27.518Z,48.10
2019-02-25T21:51:02.226Z,48.33
2019-02-25T21:53:31.282Z,48.03
2019-02-25T21:56:04.946Z,47.27
2019-02-25T21:58:35.682Z,46.93
2019-02-25T22:01:06.010Z,50.73
2019-02-25T22:03:39.343Z,48.40
2019-02-25T22:06:08.126Z,51.03
2019-02-25T22:08:38.020Z,50.77
2019-02-25T22:11:14.777Z,50.97
2019-02-25T22:13:40.255Z,47.10
2019-02-25T22:16:10.243Z,50.30
2019-02-25T22:18:40.278Z,51.13
2019-02-25T22:21:12.225Z,49.53
2019-02-25T22:23:42.047Z,48.13
2019-02-25T22:26:13.274Z,49.73
2019-02-25T22:28:43.212Z,47.87
2019-02-25T22:31:13.982Z,47.27
2019-02-25T22:33:45.082Z,48.23
2019-02-25T22:36:15.228Z,48.87
2019-02-25T22:38:45.518Z,47.17
2019-02-25T22:41:16.749Z,46.33
2019-02-25T22:43:48.253Z,42.53
2019-02-25T22:46:18.499Z,45.33
2019-02-25T22:48:48.561Z,47.67
2019-02-25T22:51:19.509Z,46.00
2019-02-25T22:53:50.124Z,46.80
2019-02-25T22:56:21.484Z,49.10
2019-02-25T22:58:51.760Z,46.73
2019-02-25T23:01:22.112Z,46.83
2019-02-25T23:03:55.032Z,48.70
2019-02-25T23:06:25.351Z,44.27
2019-02-25T23:08:56.768Z,46.03
2019-02-25T23:11:26.885Z,44.40
2019-02-25T23:13:56.909Z,46.00
2019-02-25T23:16:26.905Z,42.37
2019-02-25T23:18:56.841Z,44.80
2019-02-25T23:21:28.722Z,42.90
2019-02-25T23:24:00.483Z,45.03
2019-02-25T23:26:31.479Z,44.30
2019-02-25T23:29:01.418Z,43.40
2019-02-25T23:31:33.060Z,41.87
2019-02-25T23:34:05.561Z,42.77
2019-02-25T23:36:34.666Z,45.07
2019-02-25T23:39:06.579Z,44.07
2019-02-25T23:41:38.990Z,43.57
2019-02-25T23:44:08.979Z,44.53
2019-02-25T23:46:40.313Z,45.03
2019-02-25T23:49:11.382Z,43.77
2019-02-25T23:51:42.029Z,44.37
2019-02-25T23:54:16.006Z,43.17
2019-02-25T23:56:47.657Z,43.17
2019-02-25T23:59:17.104Z,42.87
